createdAt,value
2018-11-07T00:01:34.731Z,10.60
2018-11-07T00:04:03.185Z,10.68
2018-11-07T00:06:31.612Z,10.43
2018-11-07T00:08:59.988Z,10.42
2018-11-07T00:11:28.300Z,10.73
2018-11-07T00:13:56.692Z,10.99
2018-11-07T00:16:25.099Z,10.58
2018-11-07T00:18:53.408Z,10.42
2018-11-07T00:21:21.776Z,10.43
2018-11-07T00:23:50.161Z,10.54
2018-11-07T00:26:18.658Z,10.69
2018-11-07T00:28:47.128Z,10.73
2018-11-07T00:31:15.617Z,10.82
2018-11-07T00:33:44.580Z,10.67
2018-11-07T00:36:12.966Z,10.86
2018-11-07T00:38:41.415Z,10.79
2018-11-07T00:41:16.402Z,10.70
2018-11-07T00:43:44.797Z,10.62
2018-11-07T00:46:13.139Z,10.64
2018-11-07T00:48:41.551Z,10.38
2018-11-07T00:51:09.919Z,10.42
2018-11-07T00:53:38.271Z,10.32
2018-11-07T00:56:07.482Z,10.06
2018-11-07T00:58:35.772Z,10.61
2018-11-07T01:01:04.153Z,10.54
2018-11-07T01:03:32.499Z,10.28
2018-11-07T01:06:00.915Z,9.89
2018-11-07T01:08:29.218Z,10.44
2018-11-07T01:10:57.635Z,10.30
2018-11-07T01:13:26.050Z,10.09
2018-11-07T01:15:54.437Z,10.17
2018-11-07T01:18:22.830Z,10.27
2018-11-07T01:20:51.205Z,10.33
2018-11-07T01:23:19.680Z,10.37
2018-11-07T01:25:48.038Z,9.95
2018-11-07T01:28:16.485Z,9.95
2018-11-07T01:30:44.817Z,9.96
2018-11-07T01:33:13.171Z,9.95
2018-11-07T01:35:41.531Z,9.79
2018-11-07T01:38:10.032Z,10.12
2018-11-07T01:40:38.469Z,10.19
2018-11-07T01:43:06.848Z,10.26
2018-11-07T01:45:35.139Z,9.81
2018-11-07T01:48:03.563Z,9.95
2018-11-07T01:50:31.880Z,9.62
2018-11-07T01:53:00.183Z,9.83
2018-11-07T01:55:28.540Z,9.81
2018-11-07T01:57:57.067Z,9.86
2018-11-07T02:00:25.500Z,10.04
2018-11-07T02:02:54.107Z,9.65
2018-11-07T02:05:22.452Z,9.74
2018-11-07T02:07:50.780Z,9.75
2018-11-07T02:10:19.150Z,9.99
2018-11-07T02:12:47.555Z,9.47
2018-11-07T02:15:15.956Z,9.72
2018-11-07T02:17:44.332Z,9.87
2018-11-07T02:20:13.055Z,9.73
2018-11-07T02:22:42.090Z,9.52
2018-11-07T02:25:10.524Z,9.61
2018-11-07T02:27:39.258Z,9.44
2018-11-07T02:30:10.056Z,9.55
2018-11-07T02:32:38.404Z,9.58
2018-11-07T02:35:06.716Z,9.58
2018-11-07T02:37:35.225Z,10.02
2018-11-07T02:40:03.664Z,9.61
2018-11-07T02:42:32.143Z,9.94
2018-11-07T02:45:00.543Z,9.81
2018-11-07T02:47:28.987Z,9.73
2018-11-07T02:49:57.365Z,9.25
2018-11-07T02:52:25.724Z,9.18
2018-11-07T02:54:54.031Z,9.46
2018-11-07T02:57:22.475Z,9.28
2018-11-07T02:59:50.877Z,9.80
2018-11-07T03:02:19.256Z,9.26
2018-11-07T03:04:47.671Z,9.51
2018-11-07T03:07:16.033Z,9.53
2018-11-07T03:09:44.392Z,9.24
2018-11-07T03:12:12.747Z,9.28
2018-11-07T03:14:41.060Z,9.36
2018-11-07T03:17:09.429Z,9.41
2018-11-07T03:19:37.823Z,9.47
2018-11-07T03:22:06.548Z,9.64
2018-11-07T03:24:34.909Z,9.69
2018-11-07T03:27:03.281Z,9.55
2018-11-07T03:29:31.667Z,9.29
2018-11-07T03:32:00.037Z,9.29
2018-11-07T03:34:28.357Z,9.31
2018-11-07T03:36:56.697Z,9.27
2018-11-07T03:39:25.021Z,8.94
2018-11-07T03:41:53.390Z,8.96
2018-11-07T03:44:21.723Z,9.00
2018-11-07T03:46:50.203Z,9.21
2018-11-07T03:49:18.624Z,9.19
2018-11-07T03:51:47.016Z,9.49
2018-11-07T03:54:15.308Z,9.22
2018-11-07T03:56:43.603Z,9.34
2018-11-07T03:59:11.962Z,9.15
2018-11-07T04:01:40.313Z,9.13
2018-11-07T04:04:08.704Z,9.43
2018-11-07T04:06:37.032Z,9.49
2018-11-07T04:09:08.611Z,9.47
2018-11-07T04:11:37.004Z,9.12
2018-11-07T04:14:05.923Z,8.66
2018-11-07T04:16:34.299Z,9.05
2018-11-07T04:19:02.679Z,9.31
2018-11-07T04:21:31.067Z,9.27
2018-11-07T04:24:01.586Z,8.53
2018-11-07T04:26:30.756Z,8.94
2018-11-07T04:28:59.147Z,9.21
2018-11-07T04:31:27.433Z,8.86
2018-11-07T04:33:55.736Z,8.92
2018-11-07T04:36:24.488Z,8.76
2018-11-07T04:38:53.131Z,8.86
2018-11-07T04:41:21.487Z,8.95
2018-11-07T04:43:49.824Z,8.61
2018-11-07T04:46:18.211Z,9.16
2018-11-07T04:48:46.599Z,8.68
2018-11-07T04:51:15.544Z,8.88
2018-11-07T04:53:43.956Z,8.73
2018-11-07T04:56:12.443Z,8.93
2018-11-07T04:58:40.784Z,8.82
2018-11-07T05:01:12.333Z,8.73
2018-11-07T05:03:40.753Z,8.78
2018-11-07T05:06:09.123Z,8.94
2018-11-07T05:08:37.774Z,9.04
2018-11-07T05:11:06.259Z,8.96
2018-11-07T05:13:34.838Z,9.20
2018-11-07T05:16:03.219Z,8.53
2018-11-07T05:18:31.579Z,8.80
2018-11-07T05:20:59.989Z,8.93
2018-11-07T05:23:28.441Z,8.82
2018-11-07T05:25:56.875Z,9.22
2018-11-07T05:28:25.243Z,8.96
2018-11-07T05:30:53.679Z,8.88
2018-11-07T05:33:22.118Z,8.86
2018-11-07T05:35:50.465Z,8.64
2018-11-07T05:38:18.878Z,8.20
2018-11-07T05:40:47.262Z,8.64
2018-11-07T05:43:15.636Z,8.51
2018-11-07T05:45:44.006Z,8.57
2018-11-07T05:48:12.581Z,8.88
2018-11-07T05:50:40.952Z,8.63
2018-11-07T05:53:09.432Z,8.61
2018-11-07T05:55:37.862Z,8.57
2018-11-07T05:58:06.385Z,8.51
2018-11-07T06:00:34.751Z,8.53
2018-11-07T06:03:03.131Z,8.60
2018-11-07T06:05:31.479Z,8.89
2018-11-07T06:07:59.861Z,8.41
2018-11-07T06:10:28.296Z,8.33
2018-11-07T06:12:56.712Z,8.38
2018-11-07T06:15:25.273Z,8.57
2018-11-07T06:17:53.554Z,8.57
2018-11-07T06:20:21.848Z,8.90
2018-11-07T06:22:50.253Z,8.60
2018-11-07T06:25:18.598Z,8.71
2018-11-07T06:27:47.030Z,8.84
2018-11-07T06:30:15.469Z,8.62
2018-11-07T06:32:44.032Z,8.83
2018-11-07T06:35:12.359Z,8.80
2018-11-07T06:37:40.918Z,8.94
2018-11-07T06:40:10.658Z,8.85
2018-11-07T06:42:39.154Z,8.76
2018-11-07T06:45:08.350Z,9.05
2018-11-07T06:47:36.666Z,9.11
2018-11-07T06:50:06.292Z,9.09
2018-11-07T06:52:34.654Z,9.01
2018-11-07T06:55:03.034Z,8.90
2018-11-07T06:57:31.388Z,8.94
2018-11-07T06:59:59.734Z,8.90
2018-11-07T07:02:28.043Z,8.87
2018-11-07T07:04:56.362Z,8.88
2018-11-07T07:07:24.825Z,8.96
2018-11-07T07:09:53.129Z,8.90
2018-11-07T07:12:21.486Z,9.33
2018-11-07T07:14:49.847Z,9.34
2018-11-07T07:17:18.187Z,9.23
2018-11-07T07:19:46.488Z,9.00
2018-11-07T07:22:14.870Z,9.44
2018-11-07T07:24:43.269Z,9.47
2018-11-07T07:27:11.634Z,9.19
2018-11-07T07:29:39.983Z,8.90
2018-11-07T07:32:08.427Z,9.04
2018-11-07T07:34:36.812Z,8.69
2018-11-07T07:37:05.764Z,8.82
2018-11-07T07:39:34.241Z,9.36
2018-11-07T07:42:02.820Z,8.66
2018-11-07T07:44:31.305Z,8.88
2018-11-07T07:46:59.740Z,9.32
2018-11-07T07:49:28.139Z,9.36
2018-11-07T07:51:56.563Z,9.61
2018-11-07T07:54:24.944Z,9.52
2018-11-07T07:56:53.303Z,9.96
2018-11-07T07:59:21.685Z,9.63
2018-11-07T08:01:50.200Z,9.50
2018-11-07T08:04:18.768Z,10.04
2018-11-07T08:06:47.292Z,10.54
2018-11-07T08:09:16.117Z,10.06
2018-11-07T08:11:44.504Z,10.42
2018-11-07T08:14:12.824Z,10.10
2018-11-07T08:16:41.260Z,10.56
2018-11-07T08:19:10.098Z,10.90
2018-11-07T08:21:38.521Z,11.02
2018-11-07T08:24:06.893Z,11.24
2018-11-07T08:26:35.495Z,11.26
2018-11-07T08:29:04.051Z,11.29
2018-11-07T08:31:32.740Z,11.42
2018-11-07T08:34:01.128Z,11.32
2018-11-07T08:36:29.584Z,11.46
2018-11-07T08:38:57.933Z,11.60
2018-11-07T08:41:26.417Z,11.82
2018-11-07T08:43:54.774Z,11.94
2018-11-07T08:46:23.124Z,12.06
2018-11-07T08:48:51.532Z,11.95
2018-11-07T08:51:19.952Z,12.16
2018-11-07T08:53:48.409Z,12.23
2018-11-07T08:56:16.728Z,12.40
2018-11-07T08:58:45.136Z,12.13
2018-11-07T09:01:13.586Z,12.24
2018-11-07T09:03:41.863Z,12.16
2018-11-07T09:06:10.264Z,11.99
2018-11-07T09:08:38.716Z,11.94
2018-11-07T09:11:07.192Z,11.99
2018-11-07T09:13:35.614Z,12.04
2018-11-07T09:16:04.003Z,12.07
2018-11-07T09:18:32.456Z,12.23
2018-11-07T09:21:00.818Z,11.78
2018-11-07T09:23:29.223Z,12.42
2018-11-07T09:25:57.720Z,12.50
2018-11-07T09:28:26.173Z,13.33
2018-11-07T09:30:54.537Z,13.40
2018-11-07T09:33:22.961Z,13.28
2018-11-07T09:35:51.384Z,13.42
2018-11-07T09:38:19.775Z,13.86
2018-11-07T09:40:48.121Z,13.89
2018-11-07T09:43:16.481Z,14.13
2018-11-07T09:45:44.861Z,14.45
2018-11-07T09:48:13.233Z,13.91
2018-11-07T09:50:41.794Z,13.75
2018-11-07T09:53:10.167Z,14.38
2018-11-07T09:55:38.511Z,14.99
2018-11-07T09:58:06.845Z,14.88
2018-11-07T10:00:35.193Z,14.95
2018-11-07T10:03:03.530Z,14.48
2018-11-07T10:05:31.977Z,14.41
2018-11-07T10:08:00.353Z,14.24
2018-11-07T10:10:28.782Z,14.11
2018-11-07T10:12:57.106Z,14.03
2018-11-07T10:15:25.492Z,14.40
2018-11-07T10:17:53.884Z,14.43
2018-11-07T10:20:23.211Z,14.05
2018-11-07T10:22:51.576Z,13.85
2018-11-07T10:25:20.167Z,13.96
2018-11-07T10:27:48.819Z,13.76
2018-11-07T10:30:18.337Z,14.08
2018-11-07T10:32:47.673Z,14.02
2018-11-07T10:35:16.168Z,14.12
2018-11-07T10:37:44.666Z,14.30
2018-11-07T10:40:15.440Z,14.39
2018-11-07T10:42:43.956Z,14.46
2018-11-07T10:45:12.750Z,14.48
2018-11-07T10:47:41.540Z,14.25
2018-11-07T10:50:11.309Z,14.17
2018-11-07T10:52:40.503Z,14.24
2018-11-07T10:55:09.513Z,14.38
2018-11-07T10:57:38.117Z,14.50
2018-11-07T11:00:12.793Z,14.55
2018-11-07T11:02:47.318Z,14.54
2018-11-07T11:05:17.337Z,14.67
2018-11-07T11:07:45.750Z,14.92
2018-11-07T11:10:14.455Z,15.16
2018-11-07T11:12:43.992Z,15.19
2018-11-07T11:15:12.439Z,15.44
2018-11-07T11:17:40.883Z,15.84
2018-11-07T11:20:11.091Z,15.68
2018-11-07T11:22:39.416Z,15.96
2018-11-07T11:25:07.799Z,16.34
2018-11-07T11:27:36.285Z,16.73
2018-11-07T11:30:05.328Z,17.65
2018-11-07T11:32:33.800Z,17.68
2018-11-07T11:35:02.743Z,18.55
2018-11-07T11:37:31.089Z,19.78
2018-11-07T11:39:59.506Z,19.67
2018-11-07T11:42:27.887Z,20.02
2018-11-07T11:45:16.494Z,20.98
2018-11-07T11:47:52.796Z,21.28
2018-11-07T11:50:21.691Z,21.38
2018-11-07T11:52:50.344Z,22.22
2018-11-07T11:55:18.777Z,22.43
2018-11-07T11:57:47.572Z,22.90
2018-11-07T12:00:17.218Z,23.08
2018-11-07T12:02:46.125Z,23.22
2018-11-07T12:05:15.517Z,23.08
2018-11-07T12:07:44.046Z,22.71
2018-11-07T12:10:17.831Z,23.94
2018-11-07T12:12:48.567Z,24.00
2018-11-07T12:15:18.000Z,23.92
2018-11-07T12:17:46.492Z,24.27
2018-11-07T12:20:14.757Z,24.94
2018-11-07T12:22:44.103Z,24.79
2018-11-07T12:25:13.601Z,25.87
2018-11-07T12:27:42.412Z,26.15
2018-11-07T12:30:13.963Z,26.75
2018-11-07T12:32:43.464Z,24.94
2018-11-07T12:35:11.963Z,24.76
2018-11-07T12:37:40.661Z,25.43
2018-11-07T12:40:09.729Z,26.40
2018-11-07T12:42:38.219Z,25.71
2018-11-07T12:45:08.145Z,25.31
2018-11-07T12:47:36.540Z,26.11
2018-11-07T12:50:05.813Z,26.74
2018-11-07T12:52:34.127Z,26.88
2018-11-07T12:55:02.514Z,27.52
2018-11-07T12:57:30.958Z,26.91
2018-11-07T12:59:59.384Z,25.84
2018-11-07T13:02:27.757Z,27.14
2018-11-07T13:04:56.080Z,27.21
2018-11-07T13:07:24.458Z,27.73
2018-11-07T13:09:52.838Z,27.03
2018-11-07T13:12:21.140Z,25.93
2018-11-07T13:14:49.596Z,26.63
2018-11-07T13:17:18.059Z,25.41
2018-11-07T13:19:46.394Z,26.60
2018-11-07T13:22:14.835Z,25.83
2018-11-07T13:24:43.167Z,25.68
2018-11-07T13:27:11.644Z,26.27
2018-11-07T13:29:40.032Z,25.24
2018-11-07T13:32:08.467Z,27.29
2018-11-07T13:34:36.852Z,27.80
2018-11-07T13:37:05.343Z,25.61
2018-11-07T13:39:33.627Z,25.19
2018-11-07T13:42:01.912Z,24.77
2018-11-07T13:44:30.296Z,24.51
2018-11-07T13:46:58.608Z,27.02
2018-11-07T13:49:27.044Z,26.85
2018-11-07T13:51:55.363Z,25.44
2018-11-07T13:54:23.798Z,25.31
2018-11-07T13:56:52.156Z,25.57
2018-11-07T13:59:20.497Z,25.23
2018-11-07T14:01:48.771Z,24.98
2018-11-07T14:04:17.200Z,23.45
2018-11-07T14:06:45.561Z,22.47
2018-11-07T14:09:13.950Z,21.78
2018-11-07T14:11:42.414Z,22.03
2018-11-07T14:14:10.831Z,21.67
2018-11-07T14:16:39.402Z,21.45
2018-11-07T14:19:07.908Z,21.61
2018-11-07T14:21:36.202Z,21.39
2018-11-07T14:24:04.736Z,20.55
2018-11-07T14:26:33.257Z,20.12
2018-11-07T14:29:01.658Z,20.30
2018-11-07T14:31:30.093Z,19.73
2018-11-07T14:33:58.522Z,19.58
2018-11-07T14:36:27.031Z,19.87
2018-11-07T14:38:55.416Z,19.86
2018-11-07T14:41:23.733Z,20.33
2018-11-07T14:43:52.172Z,19.88
2018-11-07T14:46:20.555Z,19.68
2018-11-07T14:48:48.823Z,19.54
2018-11-07T14:51:17.236Z,19.38
2018-11-07T14:53:45.655Z,19.05
2018-11-07T14:56:13.959Z,18.79
2018-11-07T14:58:42.324Z,19.26
2018-11-07T15:01:10.652Z,19.09
2018-11-07T15:03:39.000Z,18.64
2018-11-07T15:06:07.400Z,18.58
2018-11-07T15:08:36.826Z,18.89
2018-11-07T15:11:05.522Z,18.12
2018-11-07T15:13:33.773Z,18.48
2018-11-07T15:16:02.211Z,18.26
2018-11-07T15:18:30.618Z,18.39
2018-11-07T15:20:58.991Z,18.13
2018-11-07T15:23:27.346Z,17.67
2018-11-07T15:25:55.678Z,17.68
2018-11-07T15:28:24.052Z,17.75
2018-11-07T15:30:52.430Z,17.86
2018-11-07T15:33:20.789Z,17.82
2018-11-07T15:35:49.143Z,17.60
2018-11-07T15:38:17.432Z,17.71
2018-11-07T15:40:45.815Z,17.47
2018-11-07T15:43:14.243Z,17.37
2018-11-07T15:45:42.604Z,17.19
2018-11-07T15:48:11.033Z,17.09
2018-11-07T15:50:44.576Z,17.06
2018-11-07T15:53:12.949Z,16.32
2018-11-07T15:55:41.275Z,16.90
2018-11-07T15:58:09.620Z,16.63
2018-11-07T16:00:38.007Z,16.77
2018-11-07T16:03:06.386Z,16.72
2018-11-07T16:05:34.689Z,16.58
2018-11-07T16:08:03.055Z,16.76
2018-11-07T16:10:31.407Z,16.56
2018-11-07T16:12:59.762Z,16.63
2018-11-07T16:15:28.237Z,16.34
2018-11-07T16:17:56.471Z,16.23
2018-11-07T16:20:24.847Z,16.08
2018-11-07T16:22:53.267Z,16.41
2018-11-07T16:25:21.532Z,16.63
2018-11-07T16:27:49.846Z,16.56
2018-11-07T16:30:19.499Z,16.18
2018-11-07T16:32:47.846Z,16.23
2018-11-07T16:35:16.462Z,16.16
2018-11-07T16:37:44.887Z,15.86
2018-11-07T16:40:14.577Z,15.71
2018-11-07T16:42:43.659Z,15.59
2018-11-07T16:45:12.916Z,15.77
2018-11-07T16:47:41.333Z,15.93
2018-11-07T16:50:10.927Z,15.78
2018-11-07T16:52:39.339Z,15.63
2018-11-07T16:55:07.916Z,15.81
2018-11-07T16:57:36.776Z,15.63
2018-11-07T17:00:07.978Z,15.64
2018-11-07T17:02:36.303Z,15.63
2018-11-07T17:05:05.021Z,15.68
2018-11-07T17:07:33.297Z,15.73
2018-11-07T17:10:01.804Z,15.56
2018-11-07T17:12:30.179Z,15.53
2018-11-07T17:14:58.501Z,15.39
2018-11-07T17:17:28.152Z,15.81
2018-11-07T17:19:56.622Z,15.90
2018-11-07T17:22:24.956Z,15.62
2018-11-07T17:24:53.291Z,15.70
2018-11-07T17:27:21.625Z,15.66
2018-11-07T17:29:49.962Z,15.93
2018-11-07T17:32:18.537Z,15.63
2018-11-07T17:34:46.931Z,15.25
2018-11-07T17:37:15.366Z,15.82
2018-11-07T17:39:43.653Z,15.71
2018-11-07T17:42:12.053Z,15.81
2018-11-07T17:44:40.758Z,15.74
2018-11-07T17:47:09.204Z,15.31
2018-11-07T17:49:37.559Z,15.63
2018-11-07T17:52:07.159Z,16.00
2018-11-07T17:54:36.686Z,16.04
2018-11-07T17:57:06.309Z,15.77
2018-11-07T17:59:35.741Z,15.60
2018-11-07T18:02:04.131Z,15.53
2018-11-07T18:04:32.517Z,15.38
2018-11-07T18:07:00.840Z,15.69
2018-11-07T18:09:29.276Z,15.83
2018-11-07T18:11:57.580Z,15.54
2018-11-07T18:14:25.955Z,15.71
2018-11-07T18:16:54.427Z,15.36
2018-11-07T18:19:22.775Z,15.55
2018-11-07T18:21:51.152Z,15.35
2018-11-07T18:24:19.497Z,15.52
2018-11-07T18:26:47.860Z,15.83
2018-11-07T18:29:16.318Z,15.31
2018-11-07T18:31:44.650Z,15.27
2018-11-07T18:34:13.558Z,15.10
2018-11-07T18:36:41.913Z,15.06
2018-11-07T18:39:11.575Z,15.31
2018-11-07T18:41:40.221Z,14.98
2018-11-07T18:44:08.682Z,15.04
2018-11-07T18:46:37.023Z,15.15
2018-11-07T18:49:05.325Z,14.81
2018-11-07T18:51:33.739Z,14.85
2018-11-07T18:54:02.081Z,14.91
2018-11-07T18:56:33.464Z,14.91
2018-11-07T18:59:01.873Z,14.94
2018-11-07T19:01:30.209Z,14.97
2018-11-07T19:03:58.535Z,14.95
2018-11-07T19:06:26.968Z,14.76
2018-11-07T19:08:55.304Z,14.79
2018-11-07T19:11:23.725Z,14.88
2018-11-07T19:13:52.271Z,14.54
2018-11-07T19:16:20.739Z,14.53
2018-11-07T19:18:49.201Z,14.41
2018-11-07T19:21:17.580Z,14.64
2018-11-07T19:23:46.040Z,14.49
2018-11-07T19:26:14.434Z,14.62
2018-11-07T19:28:42.866Z,14.43
2018-11-07T19:31:11.330Z,14.61
2018-11-07T19:33:39.713Z,14.50
2018-11-07T19:36:08.227Z,14.64
2018-11-07T19:38:36.671Z,14.68
2018-11-07T19:41:05.409Z,14.82
2018-11-07T19:43:33.898Z,14.59
2018-11-07T19:46:02.431Z,14.42
2018-11-07T19:48:30.837Z,14.61
2018-11-07T19:50:59.266Z,14.57
2018-11-07T19:53:27.711Z,14.22
2018-11-07T19:55:56.053Z,14.33
2018-11-07T19:58:24.509Z,14.27
2018-11-07T20:00:53.669Z,14.08
2018-11-07T20:03:22.073Z,14.05
2018-11-07T20:05:50.473Z,14.11
2018-11-07T20:08:18.936Z,14.10
2018-11-07T20:10:47.393Z,14.07
2018-11-07T20:13:15.793Z,14.39
2018-11-07T20:15:44.169Z,14.24
2018-11-07T20:18:12.581Z,14.36
2018-11-07T20:20:41.031Z,14.72
2018-11-07T20:23:09.531Z,14.41
2018-11-07T20:25:37.935Z,14.24
2018-11-07T20:28:06.728Z,14.10
2018-11-07T20:30:35.196Z,13.96
2018-11-07T20:33:04.380Z,14.06
2018-11-07T20:35:32.760Z,13.97
2018-11-07T20:38:01.227Z,14.25
2018-11-07T20:40:29.676Z,14.19
2018-11-07T20:42:58.029Z,14.01
2018-11-07T20:45:26.549Z,14.11
2018-11-07T20:47:55.091Z,13.97
2018-11-07T20:50:23.512Z,14.09
2018-11-07T20:52:51.969Z,14.14
2018-11-07T20:55:20.268Z,14.05
2018-11-07T20:57:48.742Z,13.99
2018-11-07T21:00:19.318Z,14.06
2018-11-07T21:02:48.858Z,14.19
2018-11-07T21:05:17.375Z,13.88
2018-11-07T21:07:45.745Z,13.95
2018-11-07T21:10:16.785Z,14.11
2018-11-07T21:12:45.677Z,13.77
2018-11-07T21:15:15.321Z,14.06
2018-11-07T21:17:44.332Z,13.91
2018-11-07T21:20:12.720Z,13.93
2018-11-07T21:22:41.523Z,13.61
2018-11-07T21:25:09.994Z,13.64
2018-11-07T21:27:38.428Z,13.64
2018-11-07T21:30:10.747Z,13.84
2018-11-07T21:32:39.492Z,13.85
2018-11-07T21:35:08.109Z,13.69
2018-11-07T21:37:36.598Z,13.79
2018-11-07T21:40:06.604Z,13.95
2018-11-07T21:42:34.976Z,14.06
2018-11-07T21:45:03.427Z,13.94
2018-11-07T21:47:31.844Z,13.94
2018-11-07T21:50:00.352Z,13.73
2018-11-07T21:52:28.734Z,13.86
2018-11-07T21:54:57.181Z,13.95
2018-11-07T21:57:25.626Z,14.11
2018-11-07T21:59:54.137Z,13.87
2018-11-07T22:02:22.498Z,14.04
2018-11-07T22:04:51.129Z,14.24
2018-11-07T22:07:19.506Z,14.19
2018-11-07T22:09:47.865Z,14.26
2018-11-07T22:12:16.219Z,14.40
2018-11-07T22:14:44.634Z,14.30
2018-11-07T22:17:12.914Z,14.22
2018-11-07T22:19:41.356Z,13.90
2018-11-07T22:22:09.696Z,14.02
2018-11-07T22:24:38.070Z,14.00
2018-11-07T22:27:06.793Z,14.00
2018-11-07T22:29:35.197Z,13.99
2018-11-07T22:32:03.728Z,14.04
2018-11-07T22:34:32.099Z,14.11
2018-11-07T22:37:00.552Z,13.85
2018-11-07T22:39:28.921Z,14.10
2018-11-07T22:41:57.312Z,14.02
2018-11-07T22:44:25.620Z,13.96
2018-11-07T22:46:54.021Z,14.21
2018-11-07T22:49:22.311Z,14.25
2018-11-07T22:51:50.651Z,14.31
2018-11-07T22:54:19.066Z,14.52
2018-11-07T22:56:47.494Z,14.47
2018-11-07T22:59:15.930Z,14.49
2018-11-07T23:01:44.363Z,14.46
2018-11-07T23:04:12.910Z,14.61
2018-11-07T23:06:41.313Z,14.20
2018-11-07T23:09:12.373Z,14.29
2018-11-07T23:11:41.716Z,14.42
2018-11-07T23:14:11.580Z,14.16
2018-11-07T23:16:40.169Z,14.26
2018-11-07T23:19:08.788Z,14.10
2018-11-07T23:21:37.359Z,14.24
2018-11-07T23:24:06.353Z,14.35
2018-11-07T23:26:35.619Z,14.32
2018-11-07T23:29:04.167Z,14.13
2018-11-07T23:31:32.612Z,14.29
2018-11-07T23:34:01.782Z,14.28
2018-11-07T23:36:30.375Z,14.31
2018-11-07T23:38:58.750Z,14.27
2018-11-07T23:41:27.072Z,14.18
2018-11-07T23:43:55.470Z,14.20
2018-11-07T23:46:23.873Z,14.42
2018-11-07T23:48:52.292Z,14.54
2018-11-07T23:51:20.614Z,14.57
2018-11-07T23:53:48.980Z,14.57
2018-11-07T23:58:54.113Z,14.68
